sensor_id;sensor_type;location;lat;lon;timestamp;P1;durP1;ratioP1;P2;durP2;ratioP2
14088;SDS011;7120;52.890;6.040;2023-06-10T00:00:41;7.33;;;6.50;;
14088;SDS011;7120;52.890;6.040;2023-06-10T00:03:07;8.63;;;7.13;;
14088;SDS011;7120;52.890;6.040;2023-06-10T00:05:33;8.57;;;6.33;;
14088;SDS011;7120;52.890;6.040;2023-06-10T00:08:00;7.87;;;6.67;;
14088;SDS011;7120;52.890;6.040;2023-06-10T00:10:32;10.93;;;7.00;;
14088;SDS011;7120;52.890;6.040;2023-06-10T00:13:01;9.30;;;6.93;;
14088;SDS011;7120;52.890;6.040;2023-06-10T00:15:30;11.37;;;7.13;;
14088;SDS011;7120;52.890;6.040;2023-06-10T00:17:56;7.77;;;6.97;;
14088;SDS011;7120;52.890;6.040;2023-06-10T00:20:21;8.23;;;6.83;;
14088;SDS011;7120;52.890;6.040;2023-06-10T00:22:49;9.43;;;7.00;;
14088;SDS011;7120;52.890;6.040;2023-06-10T00:25:14;8.77;;;6.77;;
14088;SDS011;7120;52.890;6.040;2023-06-10T00:27:40;9.53;;;7.03;;
14088;SDS011;7120;52.890;6.040;2023-06-10T00:30:06;10.50;;;6.83;;
14088;SDS011;7120;52.890;6.040;2023-06-10T00:32:32;8.70;;;6.90;;
14088;SDS011;7120;52.890;6.040;2023-06-10T00:35:01;14.93;;;7.13;;
14088;SDS011;7120;52.890;6.040;2023-06-10T00:37:27;10.23;;;7.50;;
14088;SDS011;7120;52.890;6.040;2023-06-10T00:39:53;10.40;;;7.13;;
14088;SDS011;7120;52.890;6.040;2023-06-10T00:42:19;11.70;;;6.97;;
14088;SDS011;7120;52.890;6.040;2023-06-10T00:44:44;11.37;;;7.03;;
14088;SDS011;7120;52.890;6.040;2023-06-10T00:47:10;8.43;;;7.10;;
14088;SDS011;7120;52.890;6.040;2023-06-10T00:49:35;10.57;;;7.33;;
14088;SDS011;7120;52.890;6.040;2023-06-10T00:52:02;11.53;;;6.90;;
14088;SDS011;7120;52.890;6.040;2023-06-10T00:54:29;8.57;;;6.97;;
14088;SDS011;7120;52.890;6.040;2023-06-10T00:56:55;10.20;;;7.27;;
14088;SDS011;7120;52.890;6.040;2023-06-10T00:59:21;12.53;;;7.80;;
14088;SDS011;7120;52.890;6.040;2023-06-10T01:01:47;9.77;;;6.70;;
14088;SDS011;7120;52.890;6.040;2023-06-10T01:04:12;9.57;;;6.67;;
14088;SDS011;7120;52.890;6.040;2023-06-10T01:06:44;9.60;;;6.83;;
14088;SDS011;7120;52.890;6.040;2023-06-10T01:15:06;10.37;;;7.50;;
14088;SDS011;7120;52.890;6.040;2023-06-10T01:17:33;7.93;;;7.10;;
14088;SDS011;7120;52.890;6.040;2023-06-10T01:19:58;7.00;;;6.40;;
14088;SDS011;7120;52.890;6.040;2023-06-10T01:22:24;9.13;;;7.03;;
14088;SDS011;7120;52.890;6.040;2023-06-10T01:24:53;9.60;;;6.97;;
14088;SDS011;7120;52.890;6.040;2023-06-10T01:27:23;9.03;;;7.27;;
14088;SDS011;7120;52.890;6.040;2023-06-10T01:29:58;10.20;;;7.00;;
14088;SDS011;7120;52.890;6.040;2023-06-10T01:32:36;9.03;;;6.70;;
14088;SDS011;7120;52.890;6.040;2023-06-10T01:35:05;9.23;;;6.90;;
14088;SDS011;7120;52.890;6.040;2023-06-10T01:37:33;9.90;;;7.00;;
14088;SDS011;7120;52.890;6.040;2023-06-10T01:40:01;11.80;;;7.07;;
14088;SDS011;7120;52.890;6.040;2023-06-10T01:42:30;10.77;;;7.40;;
14088;SDS011;7120;52.890;6.040;2023-06-10T01:44:57;9.83;;;7.20;;
14088;SDS011;7120;52.890;6.040;2023-06-10T01:47:23;9.80;;;7.27;;
14088;SDS011;7120;52.890;6.040;2023-06-10T01:49:48;7.87;;;7.07;;
14088;SDS011;7120;52.890;6.040;2023-06-10T01:52:13;9.50;;;7.10;;
14088;SDS011;7120;52.890;6.040;2023-06-10T01:54:39;8.40;;;7.03;;
14088;SDS011;7120;52.890;6.040;2023-06-10T01:57:06;8.07;;;6.67;;
14088;SDS011;7120;52.890;6.040;2023-06-10T01:59:31;8.40;;;7.10;;
14088;SDS011;7120;52.890;6.040;2023-06-10T02:01:57;10.53;;;7.33;;
14088;SDS011;7120;52.890;6.040;2023-06-10T02:04:22;12.60;;;7.53;;
14088;SDS011;7120;52.890;6.040;2023-06-10T02:06:47;10.00;;;7.07;;
14088;SDS011;7120;52.890;6.040;2023-06-10T02:09:13;8.10;;;7.30;;
14088;SDS011;7120;52.890;6.040;2023-06-10T02:11:38;8.23;;;7.40;;
14088;SDS011;7120;52.890;6.040;2023-06-10T02:14:04;9.97;;;7.00;;
14088;SDS011;7120;52.890;6.040;2023-06-10T02:16:30;9.87;;;7.63;;
14088;SDS011;7120;52.890;6.040;2023-06-10T02:18:56;9.83;;;6.80;;
14088;SDS011;7120;52.890;6.040;2023-06-10T02:21:21;9.20;;;6.97;;
14088;SDS011;7120;52.890;6.040;2023-06-10T02:23:47;10.87;;;7.30;;
14088;SDS011;7120;52.890;6.040;2023-06-10T02:26:12;10.00;;;7.43;;
14088;SDS011;7120;52.890;6.040;2023-06-10T02:28:38;10.30;;;7.07;;
14088;SDS011;7120;52.890;6.040;2023-06-10T02:31:03;9.03;;;6.87;;
14088;SDS011;7120;52.890;6.040;2023-06-10T02:33:28;11.87;;;7.70;;
14088;SDS011;7120;52.890;6.040;2023-06-10T02:35:54;9.37;;;7.20;;
14088;SDS011;7120;52.890;6.040;2023-06-10T02:38:20;9.67;;;7.20;;
14088;SDS011;7120;52.890;6.040;2023-06-10T02:40:46;12.03;;;7.47;;
14088;SDS011;7120;52.890;6.040;2023-06-10T02:43:11;8.93;;;7.40;;
14088;SDS011;7120;52.890;6.040;2023-06-10T02:45:36;9.83;;;7.03;;
14088;SDS011;7120;52.890;6.040;2023-06-10T02:48:02;9.60;;;8.07;;
14088;SDS011;7120;52.890;6.040;2023-06-10T02:50:27;7.77;;;6.97;;
14088;SDS011;7120;52.890;6.040;2023-06-10T02:52:52;10.67;;;7.53;;
14088;SDS011;7120;52.890;6.040;2023-06-10T02:55:18;7.97;;;7.17;;
14088;SDS011;7120;52.890;6.040;2023-06-10T02:57:43;10.50;;;7.90;;
14088;SDS011;7120;52.890;6.040;2023-06-10T03:00:08;8.10;;;7.30;;
14088;SDS011;7120;52.890;6.040;2023-06-10T03:02:35;10.87;;;7.47;;
14088;SDS011;7120;52.890;6.040;2023-06-10T03:05:03;13.73;;;7.63;;
14088;SDS011;7120;52.890;6.040;2023-06-10T03:07:30;12.50;;;7.47;;
14088;SDS011;7120;52.890;6.040;2023-06-10T03:09:55;11.43;;;7.20;;
14088;SDS011;7120;52.890;6.040;2023-06-10T03:12:21;11.17;;;7.40;;
14088;SDS011;7120;52.890;6.040;2023-06-10T03:14:46;9.53;;;7.63;;
14088;SDS011;7120;52.890;6.040;2023-06-10T03:17:12;9.53;;;7.10;;
14088;SDS011;7120;52.890;6.040;2023-06-10T03:19:37;11.30;;;7.07;;
14088;SDS011;7120;52.890;6.040;2023-06-10T03:22:10;9.93;;;7.23;;
14088;SDS011;7120;52.890;6.040;2023-06-10T03:24:37;10.73;;;6.90;;
14088;SDS011;7120;52.890;6.040;2023-06-10T03:27:08;9.10;;;7.33;;
14088;SDS011;7120;52.890;6.040;2023-06-10T03:29:34;8.93;;;7.07;;
14088;SDS011;7120;52.890;6.040;2023-06-10T03:32:00;11.33;;;7.13;;
14088;SDS011;7120;52.890;6.040;2023-06-10T03:34:26;9.13;;;6.87;;
14088;SDS011;7120;52.890;6.040;2023-06-10T03:36:51;9.60;;;7.17;;
14088;SDS011;7120;52.890;6.040;2023-06-10T03:39:17;9.37;;;7.40;;
14088;SDS011;7120;52.890;6.040;2023-06-10T03:41:42;8.73;;;6.70;;
14088;SDS011;7120;52.890;6.040;2023-06-10T03:44:07;9.07;;;6.50;;
14088;SDS011;7120;52.890;6.040;2023-06-10T03:46:33;11.07;;;7.17;;
14088;SDS011;7120;52.890;6.040;2023-06-10T03:48:58;9.07;;;6.67;;
14088;SDS011;7120;52.890;6.040;2023-06-10T03:51:25;9.73;;;7.00;;
14088;SDS011;7120;52.890;6.040;2023-06-10T03:53:51;9.33;;;7.00;;
14088;SDS011;7120;52.890;6.040;2023-06-10T03:56:16;9.53;;;7.03;;
14088;SDS011;7120;52.890;6.040;2023-06-10T03:58:42;10.63;;;7.10;;
14088;SDS011;7120;52.890;6.040;2023-06-10T04:01:07;12.07;;;7.10;;
14088;SDS011;7120;52.890;6.040;2023-06-10T04:03:32;7.87;;;6.87;;
14088;SDS011;7120;52.890;6.040;2023-06-10T04:05:58;8.50;;;6.60;;
14088;SDS011;7120;52.890;6.040;2023-06-10T04:08:23;8.60;;;6.73;;
14088;SDS011;7120;52.890;6.040;2023-06-10T04:10:49;7.73;;;6.20;;
14088;SDS011;7120;52.890;6.040;2023-06-10T04:13:14;11.00;;;6.67;;
14088;SDS011;7120;52.890;6.040;2023-06-10T04:15:40;8.57;;;6.70;;
14088;SDS011;7120;52.890;6.040;2023-06-10T04:18:05;8.77;;;6.97;;
14088;SDS011;7120;52.890;6.040;2023-06-10T04:20:31;8.97;;;6.27;;
14088;SDS011;7120;52.890;6.040;2023-06-10T04:22:57;9.60;;;6.50;;
14088;SDS011;7120;52.890;6.040;2023-06-10T04:25:22;9.40;;;6.33;;
14088;SDS011;7120;52.890;6.040;2023-06-10T04:27:49;10.37;;;6.23;;
14088;SDS011;7120;52.890;6.040;2023-06-10T04:30:15;9.50;;;6.37;;
14088;SDS011;7120;52.890;6.040;2023-06-10T04:32:41;8.13;;;6.10;;
14088;SDS011;7120;52.890;6.040;2023-06-10T04:35:07;7.57;;;6.03;;
14088;SDS011;7120;52.890;6.040;2023-06-10T04:37:33;10.30;;;6.37;;
14088;SDS011;7120;52.890;6.040;2023-06-10T04:39:58;8.70;;;6.43;;
14088;SDS011;7120;52.890;6.040;2023-06-10T04:42:24;9.07;;;6.37;;
14088;SDS011;7120;52.890;6.040;2023-06-10T04:44:49;8.77;;;6.23;;
14088;SDS011;7120;52.890;6.040;2023-06-10T04:47:15;8.10;;;6.03;;
14088;SDS011;7120;52.890;6.040;2023-06-10T04:49:42;9.17;;;6.03;;
14088;SDS011;7120;52.890;6.040;2023-06-10T04:52:07;7.27;;;6.37;;
14088;SDS011;7120;52.890;6.040;2023-06-10T04:54:32;6.80;;;5.60;;
14088;SDS011;7120;52.890;6.040;2023-06-10T04:56:58;7.07;;;5.97;;
14088;SDS011;7120;52.890;6.040;2023-06-10T04:59:24;8.03;;;6.30;;
14088;SDS011;7120;52.890;6.040;2023-06-10T05:01:50;10.17;;;6.03;;
14088;SDS011;7120;52.890;6.040;2023-06-10T05:04:15;7.70;;;5.67;;
14088;SDS011;7120;52.890;6.040;2023-06-10T05:06:40;9.17;;;6.00;;
14088;SDS011;7120;52.890;6.040;2023-06-10T05:09:06;11.37;;;6.50;;
14088;SDS011;7120;52.890;6.040;2023-06-10T05:11:31;7.93;;;5.80;;
14088;SDS011;7120;52.890;6.040;2023-06-10T05:13:57;8.80;;;6.10;;
14088;SDS011;7120;52.890;6.040;2023-06-10T05:16:22;9.60;;;6.13;;
14088;SDS011;7120;52.890;6.040;2023-06-10T05:18:48;9.57;;;6.10;;
14088;SDS011;7120;52.890;6.040;2023-06-10T05:21:13;9.10;;;5.87;;
14088;SDS011;7120;52.890;6.040;2023-06-10T05:23:38;9.13;;;6.40;;
14088;SDS011;7120;52.890;6.040;2023-06-10T05:26:04;9.87;;;6.00;;
14088;SDS011;7120;52.890;6.040;2023-06-10T05:28:29;8.60;;;5.93;;
14088;SDS011;7120;52.890;6.040;2023-06-10T05:30:55;11.00;;;6.67;;
14088;SDS011;7120;52.890;6.040;2023-06-10T05:33:20;9.80;;;5.53;;
14088;SDS011;7120;52.890;6.040;2023-06-10T05:35:45;6.87;;;6.10;;
14088;SDS011;7120;52.890;6.040;2023-06-10T05:38:11;7.03;;;5.63;;
14088;SDS011;7120;52.890;6.040;2023-06-10T05:40:36;9.37;;;5.90;;
14088;SDS011;7120;52.890;6.040;2023-06-10T05:43:01;7.90;;;5.80;;
14088;SDS011;7120;52.890;6.040;2023-06-10T05:45:27;8.57;;;5.93;;
14088;SDS011;7120;52.890;6.040;2023-06-10T05:47:52;8.67;;;5.77;;
14088;SDS011;7120;52.890;6.040;2023-06-10T05:50:18;8.00;;;5.77;;
14088;SDS011;7120;52.890;6.040;2023-06-10T05:52:43;8.73;;;5.80;;
14088;SDS011;7120;52.890;6.040;2023-06-10T05:55:09;7.57;;;5.87;;
14088;SDS011;7120;52.890;6.040;2023-06-10T05:57:35;8.60;;;5.47;;
14088;SDS011;7120;52.890;6.040;2023-06-10T06:00:00;10.33;;;5.90;;
14088;SDS011;7120;52.890;6.040;2023-06-10T06:02:26;8.87;;;5.80;;
14088;SDS011;7120;52.890;6.040;2023-06-10T06:04:51;8.27;;;5.80;;
14088;SDS011;7120;52.890;6.040;2023-06-10T06:07:16;10.97;;;6.67;;
14088;SDS011;7120;52.890;6.040;2023-06-10T06:09:42;12.30;;;5.93;;
14088;SDS011;7120;52.890;6.040;2023-06-10T06:12:07;8.00;;;5.50;;
14088;SDS011;7120;52.890;6.040;2023-06-10T06:14:36;7.33;;;5.63;;
14088;SDS011;7120;52.890;6.040;2023-06-10T06:17:02;9.07;;;6.20;;
14088;SDS011;7120;52.890;6.040;2023-06-10T06:19:28;7.00;;;5.80;;
14088;SDS011;7120;52.890;6.040;2023-06-10T06:21:53;7.70;;;6.30;;
14088;SDS011;7120;52.890;6.040;2023-06-10T06:24:19;7.63;;;5.50;;
14088;SDS011;7120;52.890;6.040;2023-06-10T06:26:44;11.60;;;6.10;;
14088;SDS011;7120;52.890;6.040;2023-06-10T06:29:10;9.53;;;6.13;;
14088;SDS011;7120;52.890;6.040;2023-06-10T06:31:35;8.90;;;5.40;;
14088;SDS011;7120;52.890;6.040;2023-06-10T06:34:01;8.10;;;5.53;;
14088;SDS011;7120;52.890;6.040;2023-06-10T06:36:26;9.93;;;5.40;;
14088;SDS011;7120;52.890;6.040;2023-06-10T06:38:52;7.10;;;5.60;;
14088;SDS011;7120;52.890;6.040;2023-06-10T06:41:17;8.97;;;5.47;;
14088;SDS011;7120;52.890;6.040;2023-06-10T06:43:43;9.57;;;5.63;;
14088;SDS011;7120;52.890;6.040;2023-06-10T06:46:08;8.03;;;5.70;;
14088;SDS011;7120;52.890;6.040;2023-06-10T06:48:34;8.33;;;5.97;;
14088;SDS011;7120;52.890;6.040;2023-06-10T06:51:00;6.93;;;5.13;;
14088;SDS011;7120;52.890;6.040;2023-06-10T06:53:27;12.43;;;5.00;;
14088;SDS011;7120;52.890;6.040;2023-06-10T06:55:52;8.37;;;5.83;;
14088;SDS011;7120;52.890;6.040;2023-06-10T06:58:17;7.87;;;5.27;;
14088;SDS011;7120;52.890;6.040;2023-06-10T07:00:43;8.67;;;5.60;;
14088;SDS011;7120;52.890;6.040;2023-06-10T07:03:08;9.07;;;5.73;;
14088;SDS011;7120;52.890;6.040;2023-06-10T07:05:34;6.20;;;5.10;;
14088;SDS011;7120;52.890;6.040;2023-06-10T07:07:59;8.03;;;5.37;;
14088;SDS011;7120;52.890;6.040;2023-06-10T07:10:24;9.93;;;5.93;;
14088;SDS011;7120;52.890;6.040;2023-06-10T07:12:51;7.87;;;5.07;;
14088;SDS011;7120;52.890;6.040;2023-06-10T07:15:16;7.83;;;5.13;;
14088;SDS011;7120;52.890;6.040;2023-06-10T07:17:42;8.43;;;5.40;;
14088;SDS011;7120;52.890;6.040;2023-06-10T07:20:08;9.00;;;5.57;;
14088;SDS011;7120;52.890;6.040;2023-06-10T07:22:34;7.13;;;4.90;;
14088;SDS011;7120;52.890;6.040;2023-06-10T07:24:59;6.57;;;5.00;;
14088;SDS011;7120;52.890;6.040;2023-06-10T07:27:24;7.80;;;5.17;;
14088;SDS011;7120;52.890;6.040;2023-06-10T07:29:50;8.60;;;5.57;;
14088;SDS011;7120;52.890;6.040;2023-06-10T07:32:16;6.83;;;5.30;;
14088;SDS011;7120;52.890;6.040;2023-06-10T07:34:41;8.17;;;5.20;;
14088;SDS011;7120;52.890;6.040;2023-06-10T07:37:06;7.53;;;4.97;;
14088;SDS011;7120;52.890;6.040;2023-06-10T07:39:32;6.27;;;4.80;;
14088;SDS011;7120;52.890;6.040;2023-06-10T07:41:57;9.50;;;5.23;;
14088;SDS011;7120;52.890;6.040;2023-06-10T07:44:23;9.00;;;5.43;;
14088;SDS011;7120;52.890;6.040;2023-06-10T07:46:49;7.23;;;4.80;;
14088;SDS011;7120;52.890;6.040;2023-06-10T07:49:14;8.23;;;4.67;;
14088;SDS011;7120;52.890;6.040;2023-06-10T07:51:40;6.10;;;4.13;;
14088;SDS011;7120;52.890;6.040;2023-06-10T07:54:05;6.10;;;4.82;;
14088;SDS011;7120;52.890;6.040;2023-06-10T07:56:31;6.25;;;4.75;;
14088;SDS011;7120;52.890;6.040;2023-06-10T07:58:56;7.43;;;4.63;;
14088;SDS011;7120;52.890;6.040;2023-06-10T08:01:22;8.77;;;5.75;;
14088;SDS011;7120;52.890;6.040;2023-06-10T08:03:48;5.53;;;4.70;;
14088;SDS011;7120;52.890;6.040;2023-06-10T08:06:13;7.93;;;4.93;;
14088;SDS011;7120;52.890;6.040;2023-06-10T08:08:39;4.60;;;4.10;;
14088;SDS011;7120;52.890;6.040;2023-06-10T08:11:07;6.65;;;4.97;;
14088;SDS011;7120;52.890;6.040;2023-06-10T08:13:33;7.35;;;4.97;;
14088;SDS011;7120;52.890;6.040;2023-06-10T08:15:59;8.23;;;4.70;;
14088;SDS011;7120;52.890;6.040;2023-06-10T08:18:24;6.75;;;4.38;;
14088;SDS011;7120;52.890;6.040;2023-06-10T08:20:49;6.38;;;4.40;;
14088;SDS011;7120;52.890;6.040;2023-06-10T08:23:15;6.35;;;4.50;;
14088;SDS011;7120;52.890;6.040;2023-06-10T08:25:40;5.78;;;4.30;;
14088;SDS011;7120;52.890;6.040;2023-06-10T08:28:06;5.72;;;4.70;;
14088;SDS011;7120;52.890;6.040;2023-06-10T08:30:31;7.07;;;4.57;;
14088;SDS011;7120;52.890;6.040;2023-06-10T08:32:56;7.22;;;4.40;;
14088;SDS011;7120;52.890;6.040;2023-06-10T08:35:22;7.25;;;4.82;;
14088;SDS011;7120;52.890;6.040;2023-06-10T08:37:47;5.18;;;4.25;;
14088;SDS011;7120;52.890;6.040;2023-06-10T08:40:13;5.13;;;4.45;;
14088;SDS011;7120;52.890;6.040;2023-06-10T08:45:22;6.30;;;4.53;;
14088;SDS011;7120;52.890;6.040;2023-06-10T08:47:49;6.38;;;4.68;;
14088;SDS011;7120;52.890;6.040;2023-06-10T08:50:18;6.88;;;4.80;;
14088;SDS011;7120;52.890;6.040;2023-06-10T08:52:44;6.85;;;5.03;;
14088;SDS011;7120;52.890;6.040;2023-06-10T08:55:21;6.90;;;4.35;;
14088;SDS011;7120;52.890;6.040;2023-06-10T08:58:08;5.50;;;4.40;;
14088;SDS011;7120;52.890;6.040;2023-06-10T09:00:35;8.13;;;4.18;;
14088;SDS011;7120;52.890;6.040;2023-06-10T09:03:01;5.57;;;4.45;;
14088;SDS011;7120;52.890;6.040;2023-06-10T09:05:28;7.88;;;5.28;;
14088;SDS011;7120;52.890;6.040;2023-06-10T09:07:54;9.80;;;4.72;;
14088;SDS011;7120;52.890;6.040;2023-06-10T09:10:22;5.75;;;4.35;;
14088;SDS011;7120;52.890;6.040;2023-06-10T09:12:48;6.55;;;4.15;;
14088;SDS011;7120;52.890;6.040;2023-06-10T09:15:13;4.85;;;3.90;;
14088;SDS011;7120;52.890;6.040;2023-06-10T09:17:39;7.53;;;5.25;;
14088;SDS011;7120;52.890;6.040;2023-06-10T09:20:06;8.10;;;4.28;;
14088;SDS011;7120;52.890;6.040;2023-06-10T09:22:32;5.93;;;4.45;;
14088;SDS011;7120;52.890;6.040;2023-06-10T09:25:02;6.50;;;4.38;;
14088;SDS011;7120;52.890;6.040;2023-06-10T09:27:32;6.78;;;4.70;;
14088;SDS011;7120;52.890;6.040;2023-06-10T09:29:57;5.38;;;4.05;;
14088;SDS011;7120;52.890;6.040;2023-06-10T09:32:24;4.90;;;4.45;;
14088;SDS011;7120;52.890;6.040;2023-06-10T09:34:49;6.28;;;4.15;;
14088;SDS011;7120;52.890;6.040;2023-06-10T09:37:24;5.50;;;4.10;;
14088;SDS011;7120;52.890;6.040;2023-06-10T09:40:03;6.97;;;4.35;;
14088;SDS011;7120;52.890;6.040;2023-06-10T09:42:32;5.00;;;4.45;;
14088;SDS011;7120;52.890;6.040;2023-06-10T09:44:58;7.80;;;4.90;;
14088;SDS011;7120;52.890;6.040;2023-06-10T09:47:23;4.85;;;4.15;;
14088;SDS011;7120;52.890;6.040;2023-06-10T09:49:49;5.07;;;4.25;;
14088;SDS011;7120;52.890;6.040;2023-06-10T09:52:24;8.10;;;4.53;;
14088;SDS011;7120;52.890;6.040;2023-06-10T09:54:51;6.35;;;4.22;;
14088;SDS011;7120;52.890;6.040;2023-06-10T09:57:18;5.43;;;4.80;;
14088;SDS011;7120;52.890;6.040;2023-06-10T09:59:44;7.95;;;4.47;;
14088;SDS011;7120;52.890;6.040;2023-06-10T10:02:17;4.60;;;3.70;;
14088;SDS011;7120;52.890;6.040;2023-06-10T10:04:43;4.97;;;4.40;;
14088;SDS011;7120;52.890;6.040;2023-06-10T10:07:09;7.28;;;3.80;;
14088;SDS011;7120;52.890;6.040;2023-06-10T10:09:36;6.07;;;4.57;;
14088;SDS011;7120;52.890;6.040;2023-06-10T10:12:02;5.40;;;4.53;;
14088;SDS011;7120;52.890;6.040;2023-06-10T10:14:39;4.75;;;4.03;;
14088;SDS011;7120;52.890;6.040;2023-06-10T10:17:11;5.88;;;4.15;;
14088;SDS011;7120;52.890;6.040;2023-06-10T10:19:48;7.03;;;5.07;;
14088;SDS011;7120;52.890;6.040;2023-06-10T10:22:19;5.30;;;3.70;;
14088;SDS011;7120;52.890;6.040;2023-06-10T10:24:50;5.55;;;4.28;;
14088;SDS011;7120;52.890;6.040;2023-06-10T10:27:21;4.30;;;3.90;;
14088;SDS011;7120;52.890;6.040;2023-06-10T10:29:52;8.25;;;3.97;;
14088;SDS011;7120;52.890;6.040;2023-06-10T10:32:19;3.65;;;3.30;;
14088;SDS011;7120;52.890;6.040;2023-06-10T10:35:06;4.90;;;3.95;;
14088;SDS011;7120;52.890;6.040;2023-06-10T10:37:34;4.70;;;4.07;;
14088;SDS011;7120;52.890;6.040;2023-06-10T10:40:00;4.07;;;3.67;;
14088;SDS011;7120;52.890;6.040;2023-06-10T10:42:28;6.70;;;4.03;;
14088;SDS011;7120;52.890;6.040;2023-06-10T10:44:53;5.63;;;3.80;;
14088;SDS011;7120;52.890;6.040;2023-06-10T10:47:22;6.97;;;3.78;;
14088;SDS011;7120;52.890;6.040;2023-06-10T10:49:54;4.75;;;3.75;;
14088;SDS011;7120;52.890;6.040;2023-06-10T10:52:23;3.65;;;3.35;;
14088;SDS011;7120;52.890;6.040;2023-06-10T10:54:49;4.13;;;3.47;;
14088;SDS011;7120;52.890;6.040;2023-06-10T10:57:19;7.32;;;3.88;;
14088;SDS011;7120;52.890;6.040;2023-06-10T11:02:16;4.15;;;3.63;;
14088;SDS011;7120;52.890;6.040;2023-06-10T11:05:03;5.68;;;3.42;;
14088;SDS011;7120;52.890;6.040;2023-06-10T11:07:31;6.40;;;3.50;;
14088;SDS011;7120;52.890;6.040;2023-06-10T11:13:06;4.85;;;3.80;;
14088;SDS011;7120;52.890;6.040;2023-06-10T11:15:25;4.07;;;2.85;;
14088;SDS011;7120;52.890;6.040;2023-06-10T11:31:25;3.55;;;3.22;;
14088;SDS011;7120;52.890;6.040;2023-06-10T11:36:30;4.50;;;3.13;;
14088;SDS011;7120;52.890;6.040;2023-06-10T11:38:57;3.50;;;3.20;;
14088;SDS011;7120;52.890;6.040;2023-06-10T11:41:24;3.83;;;3.38;;
14088;SDS011;7120;52.890;6.040;2023-06-10T11:43:54;3.53;;;3.15;;
14088;SDS011;7120;52.890;6.040;2023-06-10T11:46:23;3.85;;;3.45;;
14088;SDS011;7120;52.890;6.040;2023-06-10T11:48:51;3.95;;;3.42;;
14088;SDS011;7120;52.890;6.040;2023-06-10T11:51:18;4.90;;;3.35;;
14088;SDS011;7120;52.890;6.040;2023-06-10T11:53:47;5.32;;;3.15;;
14088;SDS011;7120;52.890;6.040;2023-06-10T11:56:13;4.10;;;3.17;;
14088;SDS011;7120;52.890;6.040;2023-06-10T11:58:40;4.47;;;3.08;;
14088;SDS011;7120;52.890;6.040;2023-06-10T12:01:10;3.20;;;2.90;;
14088;SDS011;7120;52.890;6.040;2023-06-10T12:03:38;4.10;;;3.38;;
14088;SDS011;7120;52.890;6.040;2023-06-10T12:06:05;3.60;;;2.67;;
14088;SDS011;7120;52.890;6.040;2023-06-10T12:08:32;5.45;;;3.28;;
14088;SDS011;7120;52.890;6.040;2023-06-10T12:10:58;3.47;;;3.17;;
14088;SDS011;7120;52.890;6.040;2023-06-10T12:13:27;3.35;;;3.03;;
14088;SDS011;7120;52.890;6.040;2023-06-10T12:15:53;3.22;;;2.92;;
14088;SDS011;7120;52.890;6.040;2023-06-10T12:18:20;3.10;;;2.80;;
14088;SDS011;7120;52.890;6.040;2023-06-10T12:20:47;4.00;;;3.20;;
14088;SDS011;7120;52.890;6.040;2023-06-10T12:23:16;3.20;;;2.90;;
14088;SDS011;7120;52.890;6.040;2023-06-10T12:25:52;3.58;;;3.15;;
14088;SDS011;7120;52.890;6.040;2023-06-10T12:28:25;3.97;;;3.30;;
14088;SDS011;7120;52.890;6.040;2023-06-10T12:30:52;3.38;;;3.08;;
14088;SDS011;7120;52.890;6.040;2023-06-10T12:33:31;3.60;;;3.20;;
14088;SDS011;7120;52.890;6.040;2023-06-10T12:35:56;4.93;;;3.15;;
14088;SDS011;7120;52.890;6.040;2023-06-10T12:38:22;3.47;;;3.00;;
14088;SDS011;7120;52.890;6.040;2023-06-10T12:40:52;3.97;;;3.20;;
14088;SDS011;7120;52.890;6.040;2023-06-10T12:43:21;4.03;;;3.22;;
14088;SDS011;7120;52.890;6.040;2023-06-10T12:45:47;3.45;;;2.60;;
14088;SDS011;7120;52.890;6.040;2023-06-10T12:48:22;3.45;;;3.05;;
14088;SDS011;7120;52.890;6.040;2023-06-10T12:50:55;3.30;;;3.00;;
14088;SDS011;7120;52.890;6.040;2023-06-10T12:53:22;3.30;;;2.80;;
14088;SDS011;7120;52.890;6.040;2023-06-10T12:55:49;2.88;;;2.67;;
14088;SDS011;7120;52.890;6.040;2023-06-10T12:58:16;3.22;;;3.00;;
14088;SDS011;7120;52.890;6.040;2023-06-10T13:00:41;3.65;;;3.35;;
14088;SDS011;7120;52.890;6.040;2023-06-10T13:03:07;3.80;;;2.80;;
14088;SDS011;7120;52.890;6.040;2023-06-10T13:05:37;3.88;;;2.97;;
14088;SDS011;7120;52.890;6.040;2023-06-10T13:08:07;4.95;;;2.97;;
14088;SDS011;7120;52.890;6.040;2023-06-10T13:10:35;4.18;;;2.92;;
14088;SDS011;7120;52.890;6.040;2023-06-10T13:13:01;3.47;;;2.83;;
14088;SDS011;7120;52.890;6.040;2023-06-10T13:15:27;4.60;;;3.42;;
14088;SDS011;7120;52.890;6.040;2023-06-10T13:17:54;3.53;;;3.17;;
14088;SDS011;7120;52.890;6.040;2023-06-10T13:20:19;4.60;;;2.95;;
14088;SDS011;7120;52.890;6.040;2023-06-10T13:22:45;3.45;;;3.08;;
14088;SDS011;7120;52.890;6.040;2023-06-10T13:25:11;4.20;;;3.33;;
14088;SDS011;7120;52.890;6.040;2023-06-10T13:27:37;4.20;;;2.80;;
14088;SDS011;7120;52.890;6.040;2023-06-10T13:30:07;3.17;;;2.92;;
14088;SDS011;7120;52.890;6.040;2023-06-10T13:32:34;14.13;;;3.80;;
14088;SDS011;7120;52.890;6.040;2023-06-10T13:35:00;4.40;;;3.05;;
14088;SDS011;7120;52.890;6.040;2023-06-10T13:37:25;3.92;;;2.80;;
14088;SDS011;7120;52.890;6.040;2023-06-10T13:39:51;3.60;;;3.00;;
14088;SDS011;7120;52.890;6.040;2023-06-10T13:42:17;3.10;;;2.80;;
14088;SDS011;7120;52.890;6.040;2023-06-10T13:44:42;2.80;;;2.58;;
14088;SDS011;7120;52.890;6.040;2023-06-10T13:47:08;2.70;;;2.50;;
14088;SDS011;7120;52.890;6.040;2023-06-10T13:49:33;4.00;;;2.72;;
14088;SDS011;7120;52.890;6.040;2023-06-10T13:51:59;2.88;;;2.63;;
14088;SDS011;7120;52.890;6.040;2023-06-10T13:54:24;4.53;;;2.90;;
14088;SDS011;7120;52.890;6.040;2023-06-10T13:56:50;3.05;;;2.75;;
14088;SDS011;7120;52.890;6.040;2023-06-10T13:59:15;4.40;;;2.97;;
14088;SDS011;7120;52.890;6.040;2023-06-10T14:01:40;3.33;;;2.60;;
14088;SDS011;7120;52.890;6.040;2023-06-10T14:04:06;4.88;;;2.90;;
14088;SDS011;7120;52.890;6.040;2023-06-10T14:06:32;4.70;;;2.75;;
14088;SDS011;7120;52.890;6.040;2023-06-10T14:08:58;3.58;;;2.35;;
14088;SDS011;7120;52.890;6.040;2023-06-10T14:11:27;2.65;;;2.45;;
14088;SDS011;7120;52.890;6.040;2023-06-10T14:13:52;3.13;;;2.85;;
14088;SDS011;7120;52.890;6.040;2023-06-10T14:16:18;3.97;;;2.80;;
14088;SDS011;7120;52.890;6.040;2023-06-10T14:18:43;2.80;;;2.58;;
14088;SDS011;7120;52.890;6.040;2023-06-10T14:21:09;3.05;;;2.72;;
14088;SDS011;7120;52.890;6.040;2023-06-10T14:23:34;3.55;;;2.40;;
14088;SDS011;7120;52.890;6.040;2023-06-10T14:26:00;3.30;;;2.92;;
14088;SDS011;7120;52.890;6.040;2023-06-10T14:28:27;2.95;;;2.58;;
14088;SDS011;7120;52.890;6.040;2023-06-10T14:30:52;5.20;;;2.55;;
14088;SDS011;7120;52.890;6.040;2023-06-10T14:33:18;4.75;;;2.65;;
14088;SDS011;7120;52.890;6.040;2023-06-10T14:35:43;5.10;;;3.30;;
14088;SDS011;7120;52.890;6.040;2023-06-10T14:38:09;3.55;;;3.25;;
14088;SDS011;7120;52.890;6.040;2023-06-10T14:40:35;3.13;;;2.60;;
14088;SDS011;7120;52.890;6.040;2023-06-10T14:43:00;4.80;;;3.03;;
14088;SDS011;7120;52.890;6.040;2023-06-10T14:45:27;3.60;;;3.10;;
14088;SDS011;7120;52.890;6.040;2023-06-10T14:47:52;4.28;;;3.15;;
14088;SDS011;7120;52.890;6.040;2023-06-10T14:50:17;4.53;;;3.50;;
14088;SDS011;7120;52.890;6.040;2023-06-10T14:52:43;4.13;;;3.20;;
14088;SDS011;7120;52.890;6.040;2023-06-10T14:55:08;4.93;;;2.90;;
14088;SDS011;7120;52.890;6.040;2023-06-10T14:57:34;6.28;;;3.60;;
14088;SDS011;7120;52.890;6.040;2023-06-10T14:59:59;5.50;;;2.90;;
14088;SDS011;7120;52.890;6.040;2023-06-10T15:02:25;3.78;;;3.00;;
14088;SDS011;7120;52.890;6.040;2023-06-10T15:04:51;5.63;;;2.90;;
14088;SDS011;7120;52.890;6.040;2023-06-10T15:07:17;3.30;;;3.00;;
14088;SDS011;7120;52.890;6.040;2023-06-10T15:09:43;3.08;;;2.78;;
14088;SDS011;7120;52.890;6.040;2023-06-10T15:12:08;3.22;;;2.90;;
14088;SDS011;7120;52.890;6.040;2023-06-10T15:14:34;2.90;;;2.63;;
14088;SDS011;7120;52.890;6.040;2023-06-10T15:17:00;5.68;;;4.75;;
14088;SDS011;7120;52.890;6.040;2023-06-10T15:19:25;4.45;;;2.90;;
14088;SDS011;7120;52.890;6.040;2023-06-10T15:21:51;6.55;;;3.42;;
14088;SDS011;7120;52.890;6.040;2023-06-10T15:24:17;3.63;;;3.22;;
14088;SDS011;7120;52.890;6.040;2023-06-10T15:26:43;4.28;;;2.90;;